Create Custom Reports and Graphics: Custom Report

Soquel - CalFire

Current Conditions

9/16/19 9:30 AM (-07:00)
Updated Every 15 Minutes
Temp 59.5 °F   4.2
RH 94 %   44
Dew Pt 57.7 °F   13.2
Wind Spd 3.2 mph
Wind Dir WSW | 238 °
Wind Gust 7.4 mph   5.0
Latest Rain 0.03 In
Daily Rain 0.15 In
Leaf Wet 15.0 mins
Daily Min Temp 58.5 °F   2.4
Daily Max Temp 60.4 °F   5.7

Daily Summary

Last 30 Days

Daily Data | America/Los_Angeles
as of 9/16/19 9:37 AM PDT
Date Daily Max Temp (°F) Daily Min Temp (°F) Daily Rain (In) Seasonal Rainfall (In) Daily Solar Rad (Cal/cm2) Daily ETo (in) Wind Spd (mph) Daily Max Wind (mph) Max Wind Dir (°) Dew Pt (°F) Max RH (%) Min RH (%) Leaf Wet (hrs) Soil Temp (°F) Soil Moist1 (%) Fuel Moisture (%) Max Fuel Moisture (%) Min Fuel Moisture (%) Bat Volt Min Day (V)
9/15/19 79.9 56.2 0.00 0.00 484 0.14 1.2 7.5 WSW | 253 49.5 84 36 0.5 70.8 12.9 5 10 0 12.14
9/14/19 95.2 65.7 0.00 0.00 483 0.15 1.5 7.8 SW | 229 44.5 51 13 0.0 70.8 13.0 3 6 0 12.14
9/13/19 99.5 69.5 0.00 0.00 479 0.14 1.7 9.2 SW | 222 38.8 40 11 0.0 70.8 13.0 3 5 0 12.16
9/12/19 96.3 61.1 0.00 0.00 488 0.15 1.6 7.6 S | 182 43.3 54 13 0.0 71.0 13.0 4 9 0 12.12
9/11/19 84.0 52.1 0.00 0.00 486 0.14 1.6 9.0 SSW | 203 48.0 85 25 0.0 71.2 12.9 8 17 0 12.12
9/10/19 77.9 50.7 0.00 0.00 486 0.14 1.9 11.9 WNW | 298 49.2 88 33 2.3 71.4 12.9 9 17 0 12.11
9/9/19 80.7 51.3 0.00 0.00 494 0.14 1.6 14.2 W | 275 49.0 90 27 4.7 71.6 13.0 8 16 0 12.14
9/8/19 79.6 52.2 0.00 0.00 497 0.14 1.7 10.0 SSW | 200 50.2 91 39 7.4 71.7 13.1 9 18 0 12.08
9/7/19 76.1 50.7 0.00 0.00 455 0.13 1.5 10.6 NW | 315 51.0 93 42 8.7 71.7 13.2 9 17 0 12.13
9/6/19 86.7 57.6 0.00 0.00 504 0.15 1.2 7.1 WSW | 240 54.0 85 34 1.3 71.7 13.3 7 14 0 12.15
9/5/19 87.5 56.8 0.00 0.00 475 0.14 1.1 6.6 SW | 217 55.4 87 36 0.7 71.7 13.3 7 13 0 12.15
9/4/19 89.8 59.9 0.00 0.00 483 0.15 1.1 7.3 WSW | 255 54.7 82 33 0.0 71.6 13.4 5 10 0 12.17
9/3/19 90.3 58.9 0.00 0.00 498 0.15 1.2 7.3 WSW | 258 53.1 76 29 0.0 71.6 13.4 6 13 0 12.11
9/2/19 92.2 61.2 0.00 0.00 497 0.15 1.3 9.6 WNW | 287 53.5 81 25 0.0 71.5 13.4 4 10 0 12.18
9/1/19 98.2 69.2 0.00 0.00 500 0.16 1.4 9.6 WSW | 250 46.4 53 18 0.0 71.4 13.4 3 6 0 12.14
8/31/19 93.4 58.0 0.00 0.00 521 0.16 1.3 6.8 SSW | 212 49.9 81 17 0.0 71.4 13.4 7 16 0 12.17
8/30/19 88.0 55.1 0.00 0.00 523 0.16 1.3 7.7 W | 264 56.2 93 34 10.3 71.4 13.4 9 19 0 12.13
8/29/19 82.6 56.0 0.00 0.00 511 0.15 1.2 8.7 SSW | 212 57.3 94 45 10.1 71.4 13.5 7 13 0 12.18
8/28/19 78.0 55.3 0.00 0.00 516 0.15 1.0 7.0 WNW | 292 54.9 94 50 5.0 71.3 13.5 6 12 0 12.16
8/27/19 87.3 60.4 0.00 0.00 518 0.16 1.2 7.1 SW | 234 49.7 83 23 0.0 71.2 13.5 5 9 0 12.18
8/26/19 92.3 65.3 0.00 0.00 538 0.17 1.3 7.0 SW | 226 53.2 73 28 0.0 71.1 13.6 5 9 0 12.19
8/25/19 90.5 65.0 0.00 0.00 539 0.17 1.2 6.9 W | 269 51.9 67 19 0.0 71.0 13.6 5 9 0 12.17
8/24/19 82.9 53.8 0.00 0.00 536 0.16 1.2 7.0 SW | 221 53.7 85 39 0.6 71.0 13.6 7 13 0 12.17
8/23/19 77.6 52.6 0.00 0.00 546 0.16 1.1 7.9 SW | 219 55.7 93 51 13.3 70.9 13.7 8 17 0 12.17
8/22/19 87.8 60.6 0.00 0.00 551 0.17 1.0 7.9 WNW | 303 61.0 93 43 9.8 70.9 13.7 7 15 0 12.18
8/21/19 92.1 54.4 0.00 0.00 559 0.17 1.4 11.5 WSW | 258 54.2 88 13 7.4 70.9 13.6 8 18 0 12.15
8/20/19 83.0 52.2 0.00 0.00 570 0.17 1.2 8.0 W | 266 54.0 94 39 11.0 71.1 13.6 8 16 0 12.19
8/19/19 73.4 48.7 0.00 0.00 484 0.14 1.3 8.5 WNW | 288 53.4 94 57 12.7 71.2 13.5 10 19 0 12.07
8/18/19 62.5 53.2 0.00 0.00 204 0.06 0.9 6.4 SSW | 192 53.4 93 77 14.6 71.1 13.6 12 16 8 12.18
8/17/19 70.0 50.6 0.00 0.00 597 0.16 1.4 9.2 SSW | 197 52.3 94 56 9.8 71.0 13.7 7 13 0 12.18
Max 99.5 69.5 0.00 - 597 0.17 1.9 14.2 - 61.0 94 77 14.6 71.7 13.7 12 19 8 12.19
Avg - - - - - - 1.3 - - 51.7 - - - 71.2 13.4 7 13 0 -
Min 62.5 48.7 0.00 - 204 0.06 0.9 6.4 - 38.8 40 11 0.0 70.8 12.9 3 5 0 12.07